createdAt,value
2018-07-09T00:00:12.779Z,20.87
2018-07-09T00:02:05.582Z,20.82
2018-07-09T00:03:05.550Z,20.81
2018-07-09T00:04:58.507Z,20.79
2018-07-09T00:05:58.393Z,20.71
2018-07-09T00:07:51.174Z,20.66
2018-07-09T00:08:51.133Z,20.54
2018-07-09T00:10:44.503Z,20.57
2018-07-09T00:11:43.984Z,20.50
2018-07-09T00:13:36.856Z,20.44
2018-07-09T00:14:36.828Z,20.35
2018-07-09T00:16:29.750Z,20.30
2018-07-09T00:17:29.555Z,20.27
2018-07-09T00:19:22.477Z,20.17
2018-07-09T00:20:22.364Z,20.16
2018-07-09T00:22:15.290Z,20.04
2018-07-09T00:23:15.229Z,20.01
2018-07-09T00:25:08.191Z,20.10
2018-07-09T00:26:08.050Z,19.78
2018-07-09T00:28:01.067Z,19.82
2018-07-09T00:29:00.864Z,19.80
2018-07-09T00:30:54.051Z,19.83
2018-07-09T00:31:53.778Z,19.80
2018-07-09T00:33:46.638Z,19.92
2018-07-09T00:34:46.626Z,19.94
2018-07-09T00:36:39.487Z,19.94
2018-07-09T00:37:39.357Z,19.92
2018-07-09T00:39:32.140Z,19.97
2018-07-09T00:40:32.091Z,20.07
2018-07-09T00:42:25.023Z,20.07
2018-07-09T00:43:24.866Z,20.00
2018-07-09T00:45:17.800Z,20.01
2018-07-09T00:46:17.650Z,19.98
2018-07-09T00:48:10.529Z,19.97
2018-07-09T00:49:10.471Z,19.83
2018-07-09T00:51:03.331Z,19.76
2018-07-09T00:52:03.156Z,19.72
2018-07-09T00:53:56.057Z,19.67
2018-07-09T00:54:55.977Z,19.62
2018-07-09T00:56:48.952Z,19.67
2018-07-09T00:57:48.775Z,19.58
2018-07-09T00:59:41.637Z,19.50
2018-07-09T01:00:41.703Z,19.49
2018-07-09T01:02:34.635Z,19.39
2018-07-09T01:03:34.424Z,19.38
2018-07-09T01:05:27.442Z,19.28
2018-07-09T01:06:27.222Z,19.20
2018-07-09T01:08:19.948Z,19.20
2018-07-09T01:09:19.875Z,19.24
2018-07-09T01:11:12.739Z,19.32
2018-07-09T01:12:12.597Z,19.30
2018-07-09T01:14:05.410Z,19.25
2018-07-09T01:15:05.309Z,19.32
2018-07-09T01:16:58.081Z,19.38
2018-07-09T01:17:58.015Z,19.39
2018-07-09T01:19:50.803Z,19.43
2018-07-09T01:20:50.735Z,19.39
2018-07-09T01:22:43.536Z,19.49
2018-07-09T01:23:43.472Z,19.60
2018-07-09T01:25:36.261Z,19.52
2018-07-09T01:26:36.187Z,19.49
2018-07-09T01:28:28.961Z,19.43
2018-07-09T01:29:28.899Z,19.39
2018-07-09T01:31:21.690Z,19.42
2018-07-09T01:32:21.633Z,19.34
2018-07-09T01:34:14.433Z,19.32
2018-07-09T01:35:14.366Z,19.31
2018-07-09T01:37:07.171Z,19.38
2018-07-09T01:38:07.095Z,19.23
2018-07-09T01:39:59.886Z,19.27
2018-07-09T01:40:59.807Z,19.34
2018-07-09T01:42:52.583Z,19.58
2018-07-09T01:43:52.514Z,19.55
2018-07-09T01:45:45.323Z,19.61
2018-07-09T01:46:45.238Z,19.64
2018-07-09T01:48:38.017Z,19.75
2018-07-09T01:49:38.020Z,19.71
2018-07-09T01:51:30.765Z,19.78
2018-07-09T01:52:30.684Z,19.76
2018-07-09T01:54:23.450Z,19.82
2018-07-09T01:55:23.388Z,19.80
2018-07-09T01:57:16.186Z,19.87
2018-07-09T01:58:16.106Z,19.82
2018-07-09T02:00:08.900Z,19.89
2018-07-09T02:01:08.834Z,19.83
2018-07-09T02:03:01.631Z,19.83
2018-07-09T02:04:01.556Z,19.87
2018-07-09T02:05:54.340Z,19.76
2018-07-09T02:06:54.275Z,19.83
2018-07-09T02:08:47.063Z,19.80
2018-07-09T02:09:46.987Z,19.76
2018-07-09T02:11:39.804Z,19.76
2018-07-09T02:12:39.718Z,19.70
2018-07-09T02:14:32.504Z,19.72
2018-07-09T02:15:32.437Z,19.72
2018-07-09T02:17:25.211Z,19.67
2018-07-09T02:18:25.140Z,19.49
2018-07-09T02:20:17.924Z,19.40
2018-07-09T02:21:17.866Z,19.39
2018-07-09T02:23:10.650Z,19.39
2018-07-09T02:24:10.567Z,19.35
2018-07-09T02:26:03.337Z,19.28
2018-07-09T02:27:03.283Z,19.13
2018-07-09T02:28:56.069Z,19.20
2018-07-09T02:29:55.995Z,19.13
2018-07-09T02:31:48.990Z,19.24
2018-07-09T02:32:49.018Z,19.20
2018-07-09T02:34:41.633Z,19.09
2018-07-09T02:35:41.626Z,19.01
2018-07-09T02:37:34.743Z,19.07
2018-07-09T02:38:34.311Z,19.06
2018-07-09T02:40:27.110Z,18.97
2018-07-09T02:41:27.017Z,18.96
2018-07-09T02:43:19.799Z,18.87
2018-07-09T02:44:19.733Z,18.91
2018-07-09T02:46:12.527Z,18.91
2018-07-09T02:47:12.462Z,18.93
2018-07-09T02:49:05.252Z,18.91
2018-07-09T02:50:05.161Z,18.93
2018-07-09T02:51:57.929Z,18.93
2018-07-09T02:52:57.863Z,18.97
2018-07-09T02:54:50.651Z,18.91
2018-07-09T02:55:50.578Z,19.06
2018-07-09T02:57:43.378Z,18.96
2018-07-09T02:58:43.299Z,18.82
2018-07-09T03:00:36.080Z,18.79
2018-07-09T03:01:36.007Z,18.94
2018-07-09T03:03:28.832Z,18.75
2018-07-09T03:04:28.752Z,18.79
2018-07-09T03:06:21.537Z,18.86
2018-07-09T03:07:21.477Z,18.87
2018-07-09T03:09:14.248Z,18.90
2018-07-09T03:10:14.182Z,18.87
2018-07-09T03:12:06.977Z,18.91
2018-07-09T03:13:06.904Z,18.79
2018-07-09T03:14:59.810Z,18.90
2018-07-09T03:15:59.693Z,18.87
2018-07-09T03:17:52.380Z,18.94
2018-07-09T03:18:52.308Z,18.86
2018-07-09T03:20:45.103Z,18.96
2018-07-09T03:21:45.020Z,19.01
2018-07-09T03:23:37.789Z,18.91
2018-07-09T03:24:37.719Z,19.01
2018-07-09T03:26:30.500Z,19.06
2018-07-09T03:27:30.442Z,19.09
2018-07-09T03:29:23.193Z,19.02
2018-07-09T03:30:23.138Z,19.06
2018-07-09T03:32:15.934Z,19.15
2018-07-09T03:33:15.865Z,19.21
2018-07-09T03:35:08.626Z,19.23
2018-07-09T03:36:08.591Z,19.27
2018-07-09T03:38:01.381Z,19.31
2018-07-09T03:39:01.291Z,19.27
2018-07-09T03:40:54.085Z,19.31
2018-07-09T03:41:54.007Z,19.25
2018-07-09T03:43:46.817Z,19.17
2018-07-09T03:44:46.751Z,19.21
2018-07-09T03:46:39.547Z,19.21
2018-07-09T03:47:39.456Z,19.28
2018-07-09T03:49:32.235Z,19.28
2018-07-09T03:50:32.183Z,19.30
2018-07-09T03:52:24.966Z,19.28
2018-07-09T03:53:24.908Z,19.21
2018-07-09T03:55:17.658Z,19.25
2018-07-09T03:56:17.596Z,19.05
2018-07-09T03:58:10.378Z,19.06
2018-07-09T03:59:10.317Z,19.17
2018-07-09T04:01:03.111Z,19.16
2018-07-09T04:02:03.047Z,19.16
2018-07-09T04:03:55.870Z,19.06
2018-07-09T04:04:55.787Z,19.12
2018-07-09T04:06:48.585Z,19.02
2018-07-09T04:07:48.512Z,19.07
2018-07-09T04:09:41.297Z,18.93
2018-07-09T04:10:41.200Z,18.93
2018-07-09T04:12:34.020Z,19.02
2018-07-09T04:13:33.944Z,18.96
2018-07-09T04:15:26.719Z,18.87
2018-07-09T04:16:26.673Z,18.84
2018-07-09T04:18:19.557Z,18.93
2018-07-09T04:19:19.380Z,18.94
2018-07-09T04:21:12.174Z,19.13
2018-07-09T04:22:12.111Z,19.13
2018-07-09T04:24:04.908Z,19.21
2018-07-09T04:25:04.817Z,19.25
2018-07-09T04:26:57.652Z,19.20
2018-07-09T04:27:57.535Z,19.17
2018-07-09T04:29:50.307Z,19.31
2018-07-09T04:30:50.238Z,19.32
2018-07-09T04:32:43.017Z,19.38
2018-07-09T04:33:42.959Z,19.28
2018-07-09T04:35:35.830Z,19.20
2018-07-09T04:36:35.753Z,19.20
2018-07-09T04:38:28.569Z,19.21
2018-07-09T04:39:28.484Z,19.30
2018-07-09T04:41:21.301Z,19.43
2018-07-09T04:42:21.218Z,19.38
2018-07-09T04:44:14.041Z,19.67
2018-07-09T04:45:13.970Z,19.72
2018-07-09T04:47:06.767Z,19.89
2018-07-09T04:48:06.714Z,19.95
2018-07-09T04:49:59.541Z,19.87
2018-07-09T04:50:59.429Z,19.94
2018-07-09T04:52:52.239Z,20.13
2018-07-09T04:53:52.178Z,20.17
2018-07-09T04:55:44.987Z,20.34
2018-07-09T04:56:44.928Z,20.57
2018-07-09T04:58:37.722Z,21.37
2018-07-09T04:59:37.648Z,22.01
2018-07-09T05:01:30.511Z,23.50
2018-07-09T05:02:30.371Z,23.89
2018-07-09T05:04:23.196Z,24.87
2018-07-09T05:05:23.112Z,24.70
2018-07-09T05:07:15.899Z,25.53
2018-07-09T05:08:15.818Z,25.61
2018-07-09T05:10:08.613Z,26.11
2018-07-09T05:11:08.584Z,26.04
2018-07-09T05:13:01.379Z,26.41
2018-07-09T05:14:01.264Z,26.42
2018-07-09T05:15:54.060Z,26.16
2018-07-09T05:16:53.991Z,26.32
2018-07-09T05:18:46.744Z,26.51
2018-07-09T05:19:46.682Z,25.69
2018-07-09T05:21:39.515Z,25.02
2018-07-09T05:22:39.410Z,25.16
2018-07-09T05:24:32.207Z,25.31
2018-07-09T05:25:32.147Z,25.44
2018-07-09T05:27:24.953Z,24.48
2018-07-09T05:28:24.887Z,24.94
2018-07-09T05:30:17.702Z,24.33
2018-07-09T05:31:17.696Z,24.89
2018-07-09T05:33:10.416Z,24.75
2018-07-09T05:34:10.336Z,24.14
2018-07-09T05:36:03.133Z,24.26
2018-07-09T05:37:03.072Z,23.72
2018-07-09T05:38:55.852Z,24.64
2018-07-09T05:39:55.835Z,25.27
2018-07-09T05:41:48.579Z,25.69
2018-07-09T05:42:48.516Z,26.19
2018-07-09T05:44:41.417Z,26.20
2018-07-09T05:45:41.357Z,26.04
2018-07-09T05:47:34.156Z,26.01
2018-07-09T05:48:34.104Z,26.23
2018-07-09T05:50:26.885Z,27.09
2018-07-09T05:51:26.783Z,27.53
2018-07-09T05:53:19.693Z,27.95
2018-07-09T05:54:19.559Z,28.21
2018-07-09T05:56:12.363Z,28.72
2018-07-09T05:57:12.292Z,28.72
2018-07-09T05:59:05.079Z,28.83
2018-07-09T06:00:05.017Z,28.73
2018-07-09T06:01:57.799Z,28.69
2018-07-09T06:02:57.744Z,29.05
2018-07-09T06:04:50.513Z,29.44
2018-07-09T06:05:50.451Z,29.35
2018-07-09T06:07:43.264Z,29.15
2018-07-09T06:08:43.185Z,29.29
2018-07-09T06:10:35.974Z,29.27
2018-07-09T06:11:35.993Z,29.32
2018-07-09T06:13:28.746Z,29.26
2018-07-09T06:14:28.635Z,29.15
2018-07-09T06:16:21.431Z,29.48
2018-07-09T06:17:21.360Z,29.70
2018-07-09T06:19:14.165Z,30.16
2018-07-09T06:20:14.083Z,30.13
2018-07-09T06:22:06.926Z,30.45
2018-07-09T06:23:06.857Z,30.44
2018-07-09T06:24:59.662Z,30.46
2018-07-09T06:25:59.697Z,30.63
2018-07-09T06:27:52.371Z,30.59
2018-07-09T06:28:52.303Z,30.64
2018-07-09T06:30:45.106Z,30.57
2018-07-09T06:31:45.040Z,30.78
2018-07-09T06:33:37.824Z,31.19
2018-07-09T06:34:37.755Z,31.15
2018-07-09T06:36:30.590Z,31.07
2018-07-09T06:37:30.540Z,31.37
2018-07-09T06:39:23.366Z,31.22
2018-07-09T06:40:23.264Z,31.00
2018-07-09T06:42:16.080Z,30.98
2018-07-09T06:43:15.998Z,30.45
2018-07-09T06:45:08.851Z,29.86
2018-07-09T06:46:08.763Z,29.76
2018-07-09T06:48:01.534Z,29.88
2018-07-09T06:49:01.463Z,30.07
2018-07-09T06:50:54.302Z,30.29
2018-07-09T06:51:54.249Z,30.38
2018-07-09T06:53:47.056Z,30.51
2018-07-09T06:54:46.988Z,30.45
2018-07-09T06:56:39.773Z,30.11
2018-07-09T06:57:39.712Z,30.08
2018-07-09T06:59:32.503Z,30.01
2018-07-09T07:00:32.441Z,30.22
2018-07-09T07:02:25.263Z,30.44
2018-07-09T07:03:25.167Z,30.75
2018-07-09T07:05:17.970Z,30.78
2018-07-09T07:06:17.903Z,30.59
2018-07-09T07:08:10.740Z,30.36
2018-07-09T07:09:10.735Z,30.53
2018-07-09T07:11:03.433Z,30.70
2018-07-09T07:12:03.376Z,31.04
2018-07-09T07:13:56.681Z,31.13
2018-07-09T07:14:56.604Z,30.60
2018-07-09T07:16:49.973Z,30.73
2018-07-09T07:17:49.907Z,30.59
2018-07-09T07:19:42.743Z,30.76
2018-07-09T07:20:42.647Z,31.05
2018-07-09T07:22:35.443Z,31.38
2018-07-09T07:23:35.385Z,31.50
2018-07-09T07:25:28.206Z,31.60
2018-07-09T07:26:28.143Z,31.72
2018-07-09T07:28:20.937Z,31.53
2018-07-09T07:29:20.874Z,31.28
2018-07-09T07:31:13.703Z,31.01
2018-07-09T07:32:13.642Z,30.75
2018-07-09T07:34:06.471Z,30.68
2018-07-09T07:35:06.378Z,30.81
2018-07-09T07:36:59.167Z,31.47
2018-07-09T07:37:59.110Z,31.72
2018-07-09T07:39:51.922Z,31.99
2018-07-09T07:40:51.844Z,32.02
2018-07-09T07:42:44.652Z,31.22
2018-07-09T07:43:44.602Z,31.32
2018-07-09T07:45:37.428Z,31.03
2018-07-09T07:46:37.349Z,31.05
2018-07-09T07:48:30.133Z,30.79
2018-07-09T07:49:30.079Z,30.72
2018-07-09T07:51:22.880Z,30.32
2018-07-09T07:52:22.839Z,30.00
2018-07-09T07:54:15.631Z,30.15
2018-07-09T07:55:15.582Z,29.95
2018-07-09T07:57:08.410Z,29.91
2018-07-09T07:58:08.334Z,29.73
2018-07-09T08:00:01.151Z,30.15
2018-07-09T08:01:01.080Z,30.08
2018-07-09T08:02:53.919Z,30.11
2018-07-09T08:03:53.862Z,30.25
2018-07-09T08:05:46.666Z,30.00
2018-07-09T08:06:46.575Z,29.89
2018-07-09T08:08:39.361Z,30.07
2018-07-09T08:09:39.349Z,29.79
2018-07-09T08:11:47.724Z,29.89
2018-07-09T08:13:13.482Z,30.08
2018-07-09T08:14:24.952Z,29.79
2018-07-09T08:15:24.833Z,29.76
2018-07-09T08:17:17.614Z,29.81
2018-07-09T08:18:17.529Z,29.74
2018-07-09T08:20:10.329Z,29.76
2018-07-09T08:21:10.276Z,29.76
2018-07-09T08:23:03.058Z,29.15
2018-07-09T08:24:02.981Z,29.14
2018-07-09T08:25:55.786Z,29.71
2018-07-09T08:26:55.722Z,29.86
2018-07-09T08:28:48.536Z,30.81
2018-07-09T08:29:48.459Z,31.00
2018-07-09T08:31:41.308Z,31.30
2018-07-09T08:32:41.238Z,31.05
2018-07-09T08:34:34.045Z,30.73
2018-07-09T08:35:33.964Z,30.06
2018-07-09T08:37:26.831Z,30.45
2018-07-09T08:38:26.751Z,30.46
2018-07-09T08:40:19.597Z,30.60
2018-07-09T08:41:19.573Z,30.91
2018-07-09T08:43:12.454Z,29.54
2018-07-09T08:44:12.273Z,29.21
2018-07-09T08:46:05.588Z,29.35
2018-07-09T08:47:05.529Z,29.44
2018-07-09T08:48:58.559Z,29.23
2018-07-09T08:49:58.486Z,29.33
2018-07-09T08:51:51.306Z,29.63
2018-07-09T08:52:51.217Z,29.97
2018-07-09T08:54:44.029Z,30.08
2018-07-09T08:55:43.961Z,30.29
2018-07-09T08:57:36.799Z,30.53
2018-07-09T08:58:36.724Z,30.81
2018-07-09T09:00:29.635Z,31.04
2018-07-09T09:01:29.550Z,31.18
2018-07-09T09:03:22.419Z,31.94
2018-07-09T09:04:22.341Z,32.09
2018-07-09T09:06:15.171Z,32.12
2018-07-09T09:07:15.089Z,32.34
2018-07-09T09:09:07.917Z,32.63
2018-07-09T09:10:07.863Z,32.66
2018-07-09T09:12:00.640Z,32.63
2018-07-09T09:13:00.564Z,32.87
2018-07-09T09:14:53.407Z,32.78
2018-07-09T09:15:53.362Z,32.41
2018-07-09T09:17:46.259Z,32.25
2018-07-09T09:18:46.092Z,32.46
2018-07-09T09:20:39.383Z,32.10
2018-07-09T09:21:39.323Z,31.57
2018-07-09T09:23:32.169Z,30.16
2018-07-09T09:24:32.102Z,29.76
2018-07-09T09:26:24.918Z,28.82
2018-07-09T09:27:24.859Z,28.58
2018-07-09T09:29:17.652Z,28.18
2018-07-09T09:30:17.577Z,28.02
2018-07-09T09:32:10.398Z,27.59
2018-07-09T09:33:10.315Z,27.33
2018-07-09T09:35:03.125Z,26.98
2018-07-09T09:36:03.059Z,26.91
2018-07-09T09:37:55.855Z,26.78
2018-07-09T09:38:55.789Z,26.78
2018-07-09T09:40:48.578Z,26.64
2018-07-09T09:41:48.522Z,26.66
2018-07-09T09:43:41.337Z,26.66
2018-07-09T09:44:41.270Z,26.61
2018-07-09T09:46:34.102Z,26.76
2018-07-09T09:47:34.014Z,26.96
2018-07-09T09:49:26.887Z,27.42
2018-07-09T09:50:26.761Z,27.74
2018-07-09T09:52:19.573Z,27.77
2018-07-09T09:53:19.507Z,27.86
2018-07-09T09:55:12.290Z,27.55
2018-07-09T09:56:12.236Z,27.69
2018-07-09T09:58:05.062Z,27.86
2018-07-09T09:59:04.993Z,27.90
2018-07-09T10:00:57.808Z,27.93
2018-07-09T10:01:57.716Z,27.99
2018-07-09T10:03:50.594Z,28.64
2018-07-09T10:04:50.478Z,28.98
2018-07-09T10:06:43.252Z,29.49
2018-07-09T10:07:43.195Z,29.73
2018-07-09T10:09:35.986Z,29.88
2018-07-09T10:10:35.915Z,29.76
2018-07-09T10:12:28.733Z,28.85
2018-07-09T10:13:28.656Z,28.89
2018-07-09T10:15:21.447Z,28.55
2018-07-09T10:16:21.392Z,28.69
2018-07-09T10:18:14.174Z,28.74
2018-07-09T10:19:14.103Z,28.87
2018-07-09T10:21:19.633Z,28.21
2018-07-09T10:22:19.568Z,28.23
2018-07-09T10:24:12.362Z,27.72
2018-07-09T10:25:12.289Z,27.68
2018-07-09T10:27:05.067Z,27.30
2018-07-09T10:28:05.006Z,27.01
2018-07-09T10:29:57.794Z,26.90
2018-07-09T10:30:57.723Z,26.84
2018-07-09T10:32:50.510Z,26.83
2018-07-09T10:33:50.443Z,26.79
2018-07-09T10:35:43.227Z,26.79
2018-07-09T10:36:43.165Z,26.90
2018-07-09T10:38:35.971Z,27.35
2018-07-09T10:39:35.905Z,27.49
2018-07-09T10:41:28.654Z,28.14
2018-07-09T10:42:28.598Z,28.43
2018-07-09T10:44:21.439Z,28.52
2018-07-09T10:45:21.330Z,28.36
2018-07-09T10:47:14.170Z,28.38
2018-07-09T10:48:14.057Z,28.40
2018-07-09T10:50:06.852Z,28.73
2018-07-09T10:51:06.789Z,28.52
2018-07-09T10:52:59.578Z,28.51
2018-07-09T10:53:59.504Z,28.60
2018-07-09T10:55:52.280Z,29.02
2018-07-09T10:56:52.215Z,29.18
2018-07-09T10:58:45.011Z,29.18
2018-07-09T10:59:44.932Z,29.27
2018-07-09T11:01:37.729Z,29.48
2018-07-09T11:02:37.667Z,29.55
2018-07-09T11:04:30.456Z,29.36
2018-07-09T11:05:30.386Z,29.27
2018-07-09T11:07:23.174Z,29.32
2018-07-09T11:08:23.111Z,29.32
2018-07-09T11:10:15.898Z,28.70
2018-07-09T11:11:15.826Z,28.15
2018-07-09T11:13:08.623Z,27.59
2018-07-09T11:14:08.556Z,27.55
2018-07-09T11:16:01.334Z,27.69
2018-07-09T11:17:01.274Z,27.46
2018-07-09T11:18:54.065Z,27.42
2018-07-09T11:19:53.995Z,27.23
2018-07-09T11:21:46.766Z,27.23
2018-07-09T11:22:46.709Z,26.93
2018-07-09T11:24:39.494Z,27.09
2018-07-09T11:25:39.419Z,27.49
2018-07-09T11:27:32.232Z,27.39
2018-07-09T11:28:32.175Z,27.08
2018-07-09T11:30:24.982Z,26.84
2018-07-09T11:31:24.910Z,26.73
2018-07-09T11:33:17.700Z,26.34
2018-07-09T11:34:17.647Z,26.12
2018-07-09T11:36:10.495Z,26.01
2018-07-09T11:37:10.365Z,26.09
2018-07-09T11:39:03.192Z,25.94
2018-07-09T11:40:03.120Z,25.97
2018-07-09T11:41:55.890Z,26.21
2018-07-09T11:42:55.831Z,26.34
2018-07-09T11:44:48.647Z,26.42
2018-07-09T11:45:48.566Z,26.65
2018-07-09T11:47:41.392Z,27.24
2018-07-09T11:48:41.337Z,27.48
2018-07-09T11:50:34.117Z,27.08
2018-07-09T11:51:34.045Z,27.01
2018-07-09T11:53:26.853Z,26.81
2018-07-09T11:54:26.772Z,27.06
2018-07-09T11:56:19.560Z,27.23
2018-07-09T11:57:19.505Z,27.11
2018-07-09T11:59:12.292Z,27.01
2018-07-09T12:00:12.224Z,27.05
2018-07-09T12:02:04.994Z,26.84
2018-07-09T12:03:04.936Z,26.87
2018-07-09T12:04:57.723Z,26.56
2018-07-09T12:05:57.652Z,26.41
2018-07-09T12:07:50.435Z,26.27
2018-07-09T12:08:50.381Z,26.04
2018-07-09T12:10:43.178Z,25.96
2018-07-09T12:11:43.097Z,26.12
2018-07-09T12:13:36.871Z,26.19
2018-07-09T12:14:36.806Z,26.23
2018-07-09T12:16:29.580Z,26.39
2018-07-09T12:17:29.550Z,26.35
2018-07-09T12:19:22.313Z,25.98
2018-07-09T12:20:22.242Z,26.00
2018-07-09T12:22:15.011Z,25.94
2018-07-09T12:23:14.954Z,25.82
2018-07-09T12:25:07.758Z,25.81
2018-07-09T12:26:07.674Z,25.94
2018-07-09T12:28:00.508Z,26.04
2018-07-09T12:29:00.426Z,25.98
2018-07-09T12:30:53.170Z,25.96
2018-07-09T12:31:53.105Z,25.78
2018-07-09T12:33:45.888Z,25.81
2018-07-09T12:34:45.810Z,25.85
2018-07-09T12:36:38.918Z,25.83
2018-07-09T12:37:38.858Z,25.90
2018-07-09T12:39:31.699Z,26.11
2018-07-09T12:40:31.628Z,26.03
2018-07-09T12:42:24.418Z,25.85
2018-07-09T12:43:24.351Z,25.94
2018-07-09T12:45:17.213Z,26.00
2018-07-09T12:46:17.062Z,25.85
2018-07-09T12:48:09.854Z,25.96
2018-07-09T12:49:09.793Z,25.82
2018-07-09T12:51:02.589Z,25.93
2018-07-09T12:52:02.647Z,26.03
2018-07-09T12:53:55.302Z,25.96
2018-07-09T12:54:55.226Z,25.94
2018-07-09T12:56:47.993Z,26.09
2018-07-09T12:57:47.934Z,26.09
2018-07-09T12:59:40.754Z,26.23
2018-07-09T13:00:40.689Z,26.11
2018-07-09T13:02:33.453Z,25.93
2018-07-09T13:03:33.391Z,25.97
2018-07-09T13:05:26.192Z,25.97
2018-07-09T13:06:26.101Z,25.94
2018-07-09T13:08:18.885Z,25.98
2018-07-09T13:09:18.824Z,25.93
2018-07-09T13:11:11.611Z,25.74
2018-07-09T13:12:11.540Z,25.81
2018-07-09T13:14:04.360Z,25.81
2018-07-09T13:15:04.297Z,25.82
2018-07-09T13:16:57.091Z,25.90
2018-07-09T13:17:57.019Z,25.83
2018-07-09T13:19:49.856Z,25.81
2018-07-09T13:20:49.746Z,25.83
2018-07-09T13:22:42.521Z,25.91
2018-07-09T13:23:42.466Z,25.96
2018-07-09T13:25:35.260Z,25.90
2018-07-09T13:26:35.178Z,25.86
2018-07-09T13:28:27.951Z,25.82
2018-07-09T13:29:27.908Z,25.97
2018-07-09T13:31:20.685Z,25.76
2018-07-09T13:32:20.618Z,25.66
2018-07-09T13:34:13.403Z,25.60
2018-07-09T13:35:13.345Z,25.61
2018-07-09T13:37:06.136Z,25.78
2018-07-09T13:38:06.058Z,25.67
2018-07-09T13:39:58.849Z,25.82
2018-07-09T13:40:58.775Z,25.78
2018-07-09T13:42:51.545Z,25.66
2018-07-09T13:43:51.489Z,25.64
2018-07-09T13:45:44.288Z,25.48
2018-07-09T13:46:44.205Z,25.44
2018-07-09T13:48:36.990Z,25.17
2018-07-09T13:49:36.937Z,25.30
2018-07-09T13:51:29.739Z,25.24
2018-07-09T13:52:29.653Z,25.16
2018-07-09T13:54:22.499Z,25.30
2018-07-09T13:55:22.403Z,25.26
2018-07-09T13:57:15.195Z,25.29
2018-07-09T13:58:15.111Z,25.39
2018-07-09T14:00:07.906Z,25.30
2018-07-09T14:01:07.838Z,25.42
2018-07-09T14:03:00.643Z,25.41
2018-07-09T14:04:00.717Z,25.38
2018-07-09T14:05:53.353Z,25.27
2018-07-09T14:06:53.275Z,25.30
2018-07-09T14:08:46.065Z,25.59
2018-07-09T14:09:46.015Z,25.69
2018-07-09T14:11:38.861Z,25.76
2018-07-09T14:12:38.772Z,25.78
2018-07-09T14:14:31.558Z,25.64
2018-07-09T14:15:31.488Z,25.71
2018-07-09T14:17:24.274Z,25.71
2018-07-09T14:18:24.213Z,25.67
2018-07-09T14:20:16.992Z,25.64
2018-07-09T14:21:16.928Z,25.75
2018-07-09T14:23:09.752Z,25.85
2018-07-09T14:24:09.628Z,25.98
2018-07-09T14:26:02.424Z,25.91
2018-07-09T14:27:02.367Z,25.97
2018-07-09T14:28:55.131Z,25.71
2018-07-09T14:29:55.067Z,25.66
2018-07-09T14:31:47.920Z,25.29
2018-07-09T14:32:47.854Z,25.20
2018-07-09T14:34:40.628Z,25.27
2018-07-09T14:35:40.562Z,25.07
2018-07-09T14:37:33.359Z,25.04
2018-07-09T14:38:33.279Z,25.04
2018-07-09T14:40:26.085Z,24.89
2018-07-09T14:41:26.027Z,24.83
2018-07-09T14:43:18.819Z,24.98
2018-07-09T14:44:18.744Z,24.93
2018-07-09T14:46:11.535Z,24.92
2018-07-09T14:47:11.476Z,24.97
2018-07-09T14:49:04.254Z,24.98
2018-07-09T14:50:04.197Z,24.98
2018-07-09T14:51:57.006Z,24.80
2018-07-09T14:52:56.930Z,24.90
2018-07-09T14:54:49.714Z,25.04
2018-07-09T14:55:49.661Z,25.04
2018-07-09T14:57:42.445Z,25.20
2018-07-09T14:58:42.375Z,25.26
2018-07-09T15:00:35.146Z,25.19
2018-07-09T15:01:35.087Z,25.26
2018-07-09T15:03:27.905Z,25.26
2018-07-09T15:04:27.869Z,25.14
2018-07-09T15:06:20.640Z,25.11
2018-07-09T15:07:20.567Z,25.07
2018-07-09T15:09:13.366Z,25.09
2018-07-09T15:10:13.287Z,24.99
2018-07-09T15:12:06.087Z,25.02
2018-07-09T15:13:06.015Z,25.04
2018-07-09T15:14:58.816Z,24.90
2018-07-09T15:15:58.761Z,24.99
2018-07-09T15:17:51.559Z,24.87
2018-07-09T15:18:51.482Z,24.84
2018-07-09T15:20:44.249Z,24.71
2018-07-09T15:21:44.188Z,24.79
2018-07-09T15:23:36.996Z,24.64
2018-07-09T15:24:36.928Z,24.64
2018-07-09T15:26:29.707Z,24.67
2018-07-09T15:27:29.630Z,24.60
2018-07-09T15:29:22.433Z,24.51
2018-07-09T15:30:22.376Z,24.48
2018-07-09T15:32:15.155Z,24.52
2018-07-09T15:33:15.080Z,24.36
2018-07-09T15:35:07.847Z,24.36
2018-07-09T15:36:07.797Z,24.34
2018-07-09T15:38:00.590Z,24.37
2018-07-09T15:39:00.518Z,24.49
2018-07-09T15:40:53.320Z,24.52
2018-07-09T15:41:53.257Z,24.53
2018-07-09T15:43:46.039Z,24.51
2018-07-09T15:44:45.966Z,24.49
2018-07-09T15:46:38.759Z,24.55
2018-07-09T15:47:38.686Z,24.46
2018-07-09T15:49:31.497Z,24.51
2018-07-09T15:50:31.438Z,24.44
2018-07-09T15:52:24.212Z,24.48
2018-07-09T15:53:24.143Z,24.49
2018-07-09T15:55:16.918Z,24.45
2018-07-09T15:56:16.858Z,24.51
2018-07-09T15:58:09.641Z,24.60
2018-07-09T15:59:09.571Z,24.48
2018-07-09T16:01:02.349Z,24.52
2018-07-09T16:02:02.331Z,24.60
2018-07-09T16:03:55.093Z,24.63
2018-07-09T16:04:55.061Z,24.52
2018-07-09T16:06:47.795Z,24.77
2018-07-09T16:07:47.723Z,24.70
2018-07-09T16:09:40.503Z,24.77
2018-07-09T16:10:40.441Z,24.79
2018-07-09T16:12:33.245Z,24.71
2018-07-09T16:13:33.170Z,24.74
2018-07-09T16:15:25.940Z,24.74
2018-07-09T16:16:25.892Z,24.71
2018-07-09T16:18:18.673Z,24.64
2018-07-09T16:19:18.609Z,24.61
2018-07-09T16:21:11.396Z,24.55
2018-07-09T16:22:11.335Z,24.55
2018-07-09T16:24:04.125Z,24.61
2018-07-09T16:25:04.048Z,24.55
2018-07-09T16:26:56.837Z,24.70
2018-07-09T16:27:56.764Z,24.68
2018-07-09T16:29:49.550Z,24.77
2018-07-09T16:30:49.497Z,24.71
2018-07-09T16:32:42.266Z,24.79
2018-07-09T16:33:42.188Z,24.90
2018-07-09T16:35:34.982Z,24.89
2018-07-09T16:36:34.915Z,24.83
2018-07-09T16:38:27.704Z,24.82
2018-07-09T16:39:27.627Z,24.86
2018-07-09T16:41:20.448Z,24.80
2018-07-09T16:42:20.380Z,24.74
2018-07-09T16:44:13.148Z,24.71
2018-07-09T16:45:13.075Z,24.66
2018-07-09T16:47:05.932Z,24.75
2018-07-09T16:48:05.790Z,24.74
2018-07-09T16:49:58.568Z,24.82
2018-07-09T16:50:58.504Z,24.87
2018-07-09T16:52:51.334Z,24.80
2018-07-09T16:53:51.266Z,24.75
2018-07-09T16:55:44.032Z,24.64
2018-07-09T16:56:43.971Z,24.75
2018-07-09T16:58:36.768Z,24.79
2018-07-09T16:59:36.694Z,24.75
2018-07-09T17:01:29.473Z,24.84
2018-07-09T17:02:29.413Z,24.86
2018-07-09T17:04:22.211Z,24.67
2018-07-09T17:05:22.127Z,24.77
2018-07-09T17:07:14.917Z,24.83
2018-07-09T17:08:14.843Z,24.79
2018-07-09T17:10:07.627Z,24.71
2018-07-09T17:11:07.588Z,24.74
2018-07-09T17:13:00.354Z,24.74
2018-07-09T17:14:00.280Z,24.80
2018-07-09T17:15:53.066Z,24.80
2018-07-09T17:16:53.008Z,24.75
2018-07-09T17:18:45.819Z,24.70
2018-07-09T17:19:45.721Z,24.75
2018-07-09T17:21:38.507Z,24.51
2018-07-09T17:22:38.444Z,24.51
2018-07-09T17:24:31.222Z,24.52
2018-07-09T17:25:31.158Z,24.44
2018-07-09T17:27:23.970Z,24.49
2018-07-09T17:28:23.862Z,24.39
2018-07-09T17:30:16.630Z,24.31
2018-07-09T17:31:16.573Z,24.39
2018-07-09T17:33:09.353Z,24.29
2018-07-09T17:34:09.283Z,24.29
2018-07-09T17:36:02.046Z,24.18
2018-07-09T17:37:01.991Z,24.26
2018-07-09T17:38:54.849Z,24.08
2018-07-09T17:39:54.712Z,24.15
2018-07-09T17:41:47.489Z,24.14
2018-07-09T17:42:47.429Z,24.04
2018-07-09T17:44:40.212Z,23.97
2018-07-09T17:45:40.140Z,23.93
2018-07-09T17:47:32.944Z,23.94
2018-07-09T17:48:32.875Z,23.87
2018-07-09T17:50:25.644Z,23.81
2018-07-09T17:51:25.589Z,23.75
2018-07-09T17:53:18.390Z,23.77
2018-07-09T17:54:18.296Z,23.69
2018-07-09T17:56:11.076Z,23.75
2018-07-09T17:57:11.017Z,23.74
2018-07-09T17:59:03.817Z,23.63
2018-07-09T18:00:03.730Z,23.72
2018-07-09T18:01:56.532Z,23.67
2018-07-09T18:02:56.469Z,23.59
2018-07-09T18:04:49.260Z,23.57
2018-07-09T18:05:49.179Z,23.52
2018-07-09T18:07:42.044Z,23.47
2018-07-09T18:08:41.896Z,23.44
2018-07-09T18:10:34.679Z,23.31
2018-07-09T18:11:34.607Z,23.21
2018-07-09T18:13:27.452Z,23.11
2018-07-09T18:14:27.331Z,23.14
2018-07-09T18:16:20.103Z,23.11
2018-07-09T18:17:20.039Z,23.00
2018-07-09T18:19:12.931Z,22.94
2018-07-09T18:20:12.746Z,23.07
2018-07-09T18:22:05.524Z,22.99
2018-07-09T18:23:05.448Z,22.89
2018-07-09T18:24:58.229Z,22.61
2018-07-09T18:25:58.159Z,22.49
2018-07-09T18:27:50.969Z,22.38
2018-07-09T18:28:50.876Z,22.30
2018-07-09T18:30:43.651Z,22.21
2018-07-09T18:31:43.588Z,22.14